Time;durP1;ratioP1;P1;durP2;ratioP2;P2;SDS_P1;SDS_P2;PMS_P1;PMS_P2;Temp;Humidity;BMP_temperature;BMP_pressure;BME280_temperature;BME280_humidity;BME280_pressure;Samples;Min_cycle;Max_cycle;Signal;HPM_P1;HPM_P2
2022/12/31 00:01:07;;;;;;;1.05;0.55;;;;;;;14.70;74.13;99188.72;5032331;28;19921;-55
2022/12/31 00:03:35;;;;;;;0.70;0.50;;;;;;;14.73;73.70;99181.56;5030899;28;20061;-53
2022/12/31 00:06:13;;;;;;;0.90;0.43;;;;;;;14.75;73.54;99196.81;5032951;28;20598;-55
2022/12/31 00:08:40;;;;;;;1.10;0.50;;;;;;;14.61;73.98;99186.19;5031595;28;20065;-55
2022/12/31 00:11:07;;;;;;;0.60;0.40;;;;;;;14.74;74.24;99197.19;5029418;28;20053;-56
2022/12/31 00:13:34;;;;;;;0.82;0.47;;;;;;;14.73;74.97;99182.38;5031990;28;20071;-56
2022/12/31 00:16:07;;;;;;;0.80;0.50;;;;;;;14.73;74.09;99182.38;5032619;28;20398;-56
2022/12/31 00:18:34;;;;;;;0.88;0.60;;;;;;;14.73;73.87;99187.16;5030665;28;20060;-56
2022/12/31 00:21:07;;;;;;;1.98;0.75;;;;;;;14.73;75.65;99187.97;5032721;28;20060;-56
2022/12/31 00:23:35;;;;;;;1.88;0.52;;;;;;;14.65;76.73;99189.03;5032109;28;20057;-56
2022/12/31 00:26:05;;;;;;;0.95;0.60;;;;;;;14.59;76.64;99177.34;5027812;28;20519;-56
2022/12/31 00:28:33;;;;;;;0.52;0.40;;;;;;;14.44;77.82;99186.63;5023404;28;20046;-56
2022/12/31 00:31:07;;;;;;;1.08;0.60;;;;;;;14.38;79.61;99188.09;5028960;28;20414;-55
2022/12/31 00:33:35;;;;;;;2.72;0.85;;;;;;;13.98;83.52;99197.72;5032253;28;20045;-55
2022/12/31 00:36:10;;;;;;;5.07;1.20;;;;;;;13.65;87.76;99207.44;5027939;28;20119;-55
2022/12/31 00:38:39;;;;;;;2.22;0.70;;;;;;;13.55;87.77;99196.84;5005920;28;20479;-55
2022/12/31 00:41:07;;;;;;;1.38;0.70;;;;;;;13.55;88.89;99186.44;5014983;28;20053;-56
2022/12/31 00:43:34;;;;;;;1.65;0.77;;;;;;;13.56;88.92;99187.25;5012029;28;20058;-56
2022/12/31 00:46:03;;;;;;;1.10;0.77;;;;;;;13.21;92.20;99188.03;5013784;28;20054;-55
2022/12/31 00:48:30;;;;;;;1.70;1.13;;;;;;;13.27;94.48;99192.19;5012059;28;20403;-56
2022/12/31 00:50:58;;;;;;;1.92;0.90;;;;;;;13.30;95.22;99199.06;5011553;28;20057;-56
2022/12/31 00:53:27;;;;;;;1.77;0.90;;;;;;;13.32;94.75;99200.31;5003558;28;20053;-56
2022/12/31 00:56:00;;;;;;;1.75;1.00;;;;;;;13.43;93.82;99191.34;5020878;28;20053;-57
2022/12/31 00:58:27;;;;;;;1.23;0.80;;;;;;;13.50;94.02;99189.53;5032086;28;20057;-57
2022/12/31 01:00:55;;;;;;;1.50;0.80;;;;;;;13.57;93.13;99183.28;5031337;28;20057;-56
2022/12/31 01:03:22;;;;;;;1.20;0.77;;;;;;;13.66;91.61;99192.28;5014334;28;20065;-56
2022/12/31 01:05:50;;;;;;;2.25;0.90;;;;;;;13.64;90.36;99186.22;5016482;28;20060;-57
2022/12/31 01:08:17;;;;;;;2.95;1.10;;;;;;;13.69;89.45;99179.53;5016134;28;20505;-57
2022/12/31 01:13:34;;;;;;;0.95;0.57;;;;;;;13.85;88.57;99159.88;5035512;28;20068;-56
2022/12/31 01:16:08;;;;;;;1.40;0.88;;;;;;;13.88;87.25;99159.13;5020591;28;20054;-56
2022/12/31 01:18:36;;;;;;;0.88;0.50;;;;;;;13.92;87.52;99162.81;5011680;28;20395;-57
2022/12/31 01:21:05;;;;;;;1.88;0.80;;;;;;;13.98;86.61;99150.97;4997223;28;20076;-57
2022/12/31 01:23:33;;;;;;;1.10;0.70;;;;;;;13.84;85.59;99149.84;4995700;28;20384;-57
2022/12/31 01:26:03;;;;;;;0.85;0.47;;;;;;;13.94;86.12;99135.25;5009943;28;20049;-55
2022/12/31 01:28:31;;;;;;;0.75;0.50;;;;;;;13.90;85.67;99156.78;5035205;28;20057;-55
2022/12/31 01:30:58;;;;;;;0.90;0.50;;;;;;;13.91;85.42;99162.00;5035732;28;20052;-55
2022/12/31 01:33:25;;;;;;;0.70;0.40;;;;;;;13.93;85.02;99125.25;5035068;28;20054;-57
2022/12/31 01:35:53;;;;;;;0.77;0.47;;;;;;;13.99;84.74;99134.97;5034901;28;20414;-55
2022/12/31 01:38:20;;;;;;;0.80;0.43;;;;;;;14.05;85.44;99119.50;5035371;28;20062;-55
2022/12/31 01:40:47;;;;;;;0.80;0.40;;;;;;;14.09;84.71;99137.19;5031008;28;20064;-56
2022/12/31 01:43:18;;;;;;;1.02;0.57;;;;;;;14.14;84.47;99131.25;5021794;28;20050;-57
2022/12/31 01:45:49;;;;;;;0.77;0.43;;;;;;;14.09;85.66;99128.78;5010411;28;20049;-55
2022/12/31 01:48:22;;;;;;;1.52;0.40;;;;;;;14.21;85.10;99123.00;4996532;28;20062;-56
2022/12/31 01:50:50;;;;;;;0.70;0.35;;;;;;;14.23;85.77;99141.41;5015339;28;20045;-56
2022/12/31 01:53:18;;;;;;;0.80;0.40;;;;;;;14.23;84.52;99114.22;5015247;28;20052;-57
2022/12/31 01:55:50;;;;;;;0.50;0.30;;;;;;;14.24;85.06;99120.59;5019023;28;20045;-56
2022/12/31 01:58:22;;;;;;;0.90;0.50;;;;;;;14.28;85.53;99108.31;5008610;28;20407;-57
2022/12/31 02:00:49;;;;;;;1.80;0.43;;;;;;;14.28;85.98;99130.72;5010684;28;20375;-56
2022/12/31 02:03:17;;;;;;;0.52;0.38;;;;;;;14.36;84.51;99112.03;5009953;28;20402;-56
2022/12/31 02:05:48;;;;;;;2.13;0.40;;;;;;;14.26;85.16;99112.66;5004709;28;20049;-56
2022/12/31 02:08:15;;;;;;;0.38;0.22;;;;;;;14.36;85.80;99112.88;5014913;28;20054;-56
2022/12/31 02:10:43;;;;;;;0.80;0.30;;;;;;;14.45;85.31;99122.97;5023045;28;20045;-56
2022/12/31 02:13:11;;;;;;;0.30;0.30;;;;;;;14.40;84.21;99101.69;5030370;28;20058;-54
2022/12/31 02:15:55;;;;;;;1.08;0.50;;;;;;;14.39;85.31;99094.50;5020385;28;20054;-55
2022/12/31 02:18:34;;;;;;;0.45;0.30;;;;;;;14.49;84.51;99093.88;4995394;28;20529;-55
2022/12/31 02:21:39;;;;;;;0.40;0.30;;;;;;;14.57;84.39;99117.22;4995889;28;20050;-56
2022/12/31 02:24:42;;;;;;;1.77;0.30;;;;;;;14.58;82.97;99111.25;5000701;28;20484;-55
2022/12/31 02:27:16;;;;;;;0.52;0.30;;;;;;;14.69;83.43;99119.03;5013510;28;20061;-56
2022/12/31 02:30:08;;;;;;;0.63;0.20;;;;;;;14.74;82.81;99121.50;5014451;28;20065;-55
2022/12/31 02:32:47;;;;;;;0.17;0.17;;;;;;;14.73;82.55;99120.69;5013993;28;20053;-56
2022/12/31 02:35:19;;;;;;;1.88;0.75;;;;;;;14.73;81.79;99139.53;5013949;28;20061;-55
2022/12/31 02:37:49;;;;;;;0.35;0.20;;;;;;;14.81;81.29;99135.66;5013850;28;20053;-54
2022/12/31 02:40:21;;;;;;;0.10;0.10;;;;;;;14.89;81.04;99125.34;5034505;28;20056;-53
2022/12/31 02:42:48;;;;;;;0.13;0.13;;;;;;;14.99;79.83;99122.72;5034060;28;20060;-55
2022/12/31 02:45:23;;;;;;;0.65;0.30;;;;;;;15.10;80.17;99116.44;5028253;28;20060;-56
2022/12/31 02:48:05;;;;;;;0.10;0.10;;;;;;;15.15;78.83;99118.94;5013896;28;20041;-56
2022/12/31 02:50:54;;;;;;;0.20;0.10;;;;;;;15.24;78.16;99105.44;5013782;28;20518;-55
2022/12/31 02:53:34;;;;;;;0.82;0.30;;;;;;;15.28;78.00;99103.50;5015631;28;20054;-57
2022/12/31 02:56:08;;;;;;;1.67;0.30;;;;;;;15.30;78.20;99103.91;5002958;28;20054;-56
2022/12/31 03:04:35;;;;;;;0.63;0.30;;;;;;;14.82;84.39;99142.84;5018611;28;20532;-55
2022/12/31 03:07:05;;;;;;;1.40;0.20;;;;;;;14.58;86.52;99114.06;5013562;28;20379;-56
2022/12/31 03:09:32;;;;;;;1.42;0.30;;;;;;;14.39;88.31;99103.69;4997653;28;20046;-56
2022/12/31 03:14:46;;;;;;;3.47;0.60;;;;;;;14.03;91.55;99138.66;5006936;28;20056;-57
2022/12/31 03:17:14;;;;;;;1.33;0.50;;;;;;;13.96;94.50;99128.13;5013401;28;20054;-58
2022/12/31 03:22:27;;;;;;;0.45;0.38;;;;;;;13.71;95.55;99143.59;5033083;28;20121;-58
2022/12/31 03:27:40;;;;;;;1.13;0.40;;;;;;;13.72;98.42;99134.84;5002414;28;20061;-59
2022/12/31 03:30:09;;;;;;;1.35;0.40;;;;;;;13.74;97.68;99146.47;5018327;28;20072;-59
2022/12/31 03:32:37;;;;;;;1.35;0.30;;;;;;;13.72;96.69;99174.00;4993772;28;20054;-59
2022/12/31 03:35:06;;;;;;;2.80;0.30;;;;;;;13.78;96.68;99149.34;4999337;28;20058;-58
2022/12/31 03:37:33;;;;;;;0.85;0.40;;;;;;;13.89;96.53;99180.34;4993628;28;20051;-58
2022/12/31 03:40:00;;;;;;;1.63;0.32;;;;;;;13.94;95.82;99158.50;4994154;28;20419;-59
2022/12/31 03:42:28;;;;;;;1.20;0.30;;;;;;;13.89;94.68;99171.97;4993635;28;20491;-58
2022/12/31 03:44:55;;;;;;;3.10;0.50;;;;;;;13.76;95.33;99183.28;4993359;28;20081;-59
2022/12/31 03:47:22;;;;;;;5.18;0.95;;;;;;;13.77;97.03;99170.94;5011804;28;20521;-59
2022/12/31 03:49:51;;;;;;;4.05;0.40;;;;;;;13.75;98.35;99164.91;5013210;28;21696;-59
2022/12/31 03:52:18;;;;;;;1.27;0.50;;;;;;;13.84;98.16;99167.47;5012563;28;20050;-59
2022/12/31 03:54:45;;;;;;;1.83;0.50;;;;;;;13.87;97.21;99171.50;5002964;28;20057;-59
2022/12/31 03:57:16;;;;;;;0.80;0.35;;;;;;;13.98;96.34;99167.75;5012365;28;20060;-60
2022/12/31 03:59:43;;;;;;;1.10;0.50;;;;;;;14.13;94.82;99182.84;5012810;28;20423;-58
2022/12/31 04:02:11;;;;;;;0.85;0.40;;;;;;;14.20;95.05;99171.78;5013018;28;20065;-59
2022/12/31 04:04:38;;;;;;;1.02;0.50;;;;;;;14.28;93.32;99189.53;5015441;28;20057;-60
2022/12/31 04:07:07;;;;;;;0.75;0.40;;;;;;;14.31;92.63;99180.38;4997356;28;20054;-59
2022/12/31 04:09:34;;;;;;;1.15;0.70;;;;;;;14.34;92.57;99176.03;4993070;28;20060;-58
2022/12/31 04:12:01;;;;;;;1.35;0.50;;;;;;;14.33;93.37;99174.41;4993365;28;20415;-59
2022/12/31 04:14:28;;;;;;;1.02;0.40;;;;;;;14.40;91.87;99185.75;4993551;28;20498;-59
2022/12/31 04:16:56;;;;;;;1.80;0.50;;;;;;;14.43;90.39;99168.19;4993353;28;20050;-58
2022/12/31 04:19:23;;;;;;;1.02;0.50;;;;;;;14.47;90.32;99177.47;5024424;28;20049;-59
2022/12/31 04:21:50;;;;;;;0.80;0.50;;;;;;;14.43;90.32;99173.81;5005781;28;20054;-60
2022/12/31 04:24:19;;;;;;;2.17;0.52;;;;;;;14.52;89.45;99154.75;4993532;28;20077;-59
2022/12/31 04:26:46;;;;;;;2.80;0.50;;;;;;;14.58;88.23;99172.09;5003311;28;20061;-59
2022/12/31 04:29:13;;;;;;;0.70;0.45;;;;;;;14.60;86.66;99148.13;5012621;28;20049;-58
2022/12/31 04:31:40;;;;;;;1.05;0.52;;;;;;;14.56;87.31;99166.84;5012431;28;20380;-59
2022/12/31 04:34:08;;;;;;;0.30;0.30;;;;;;;14.64;86.35;99158.59;5027677;28;20053;-59
2022/12/31 04:36:35;;;;;;;0.85;0.40;;;;;;;14.69;87.12;99164.69;5022429;28;20050;-57
2022/12/31 04:39:02;;;;;;;1.20;0.40;;;;;;;14.67;87.09;99163.44;4998453;28;20062;-59
2022/12/31 04:41:31;;;;;;;1.13;0.47;;;;;;;14.53;89.89;99164.78;5008734;28;20058;-59
2022/12/31 04:43:59;;;;;;;1.50;0.40;;;;;;;14.53;89.64;99178.78;5021300;28;20052;-60
2022/12/31 04:46:29;;;;;;;0.88;0.55;;;;;;;14.61;88.62;99185.34;5007499;28;20475;-59
2022/12/31 04:48:56;;;;;;;1.05;0.50;;;;;;;14.66;89.46;99171.03;5012538;28;20396;-59
2022/12/31 04:51:25;;;;;;;1.30;0.30;;;;;;;14.66;90.71;99178.63;4996765;28;20130;-59
2022/12/31 04:53:53;;;;;;;1.30;0.50;;;;;;;14.75;89.88;99179.19;5008081;28;20049;-59
2022/12/31 04:56:21;;;;;;;1.02;0.47;;;;;;;14.73;87.85;99173.16;5011335;28;20054;-59
2022/12/31 04:58:50;;;;;;;1.20;0.50;;;;;;;14.84;86.00;99199.38;5007326;28;20061;-59
2022/12/31 05:01:17;;;;;;;0.75;0.30;;;;;;;14.83;85.76;99186.53;4996404;28;20058;-58
2022/12/31 05:03:45;;;;;;;0.57;0.40;;;;;;;14.91;85.70;99185.47;4999907;28;20050;-59
2022/12/31 05:06:15;;;;;;;0.40;0.30;;;;;;;14.93;84.48;99185.91;4996740;28;20054;-59
2022/12/31 05:08:42;;;;;;;1.30;0.50;;;;;;;15.00;84.35;99193.63;4999863;28;20042;-59
2022/12/31 05:11:09;;;;;;;0.60;0.40;;;;;;;15.10;83.85;99204.22;4996216;28;20054;-58
2022/12/31 05:13:37;;;;;;;0.20;0.20;;;;;;;15.13;82.05;99217.47;5004494;28;20058;-59
2022/12/31 05:16:07;;;;;;;0.70;0.40;;;;;;;15.17;80.86;99211.94;5036394;28;20371;-59
2022/12/31 05:18:34;;;;;;;1.65;0.40;;;;;;;15.23;80.55;99188.78;5031706;28;20383;-59
2022/12/31 05:21:02;;;;;;;1.15;0.30;;;;;;;15.36;79.57;99191.38;5035612;28;20057;-59
2022/12/31 05:23:29;;;;;;;0.90;0.43;;;;;;;15.36;78.40;99199.78;5024779;28;20054;-60
2022/12/31 05:25:58;;;;;;;1.25;0.47;;;;;;;15.46;78.83;99187.91;5002560;28;20056;-58
2022/12/31 05:28:25;;;;;;;0.40;0.20;;;;;;;15.54;78.13;99183.19;5015211;28;20488;-58
2022/12/31 05:30:53;;;;;;;1.13;0.35;;;;;;;15.60;77.86;99195.72;5017908;28;20049;-59
2022/12/31 05:33:21;;;;;;;0.55;0.30;;;;;;;15.69;76.04;99243.97;5031163;28;20479;-58
2022/12/31 05:35:49;;;;;;;1.83;0.32;;;;;;;15.75;75.62;99180.75;5034069;28;20064;-59
2022/12/31 05:38:16;;;;;;;0.60;0.22;;;;;;;15.83;75.32;99182.44;5022555;28;20046;-58
2022/12/31 05:40:43;;;;;;;1.63;0.35;;;;;;;15.83;75.27;99188.06;4994918;28;20050;-59
2022/12/31 05:43:11;;;;;;;0.95;0.30;;;;;;;15.85;74.31;99189.66;4995043;28;20058;-59
2022/12/31 05:45:38;;;;;;;1.05;0.30;;;;;;;15.90;74.65;99192.16;4994880;28;20497;-59
2022/12/31 05:48:05;;;;;;;1.33;0.40;;;;;;;15.96;73.78;99190.63;5008307;28;20064;-59
2022/12/31 05:50:34;;;;;;;3.20;0.50;;;;;;;15.99;72.88;99192.66;5033826;28;20064;-59
2022/12/31 05:53:01;;;;;;;0.40;0.20;;;;;;;16.07;73.48;99179.53;5027272;28;20423;-59
2022/12/31 05:55:29;;;;;;;1.23;0.30;;;;;;;16.10;73.21;99210.44;5014049;28;20089;-58
2022/12/31 05:57:56;;;;;;;1.00;0.35;;;;;;;16.13;72.42;99187.22;5013482;28;20483;-59
2022/12/31 06:00:23;;;;;;;1.10;0.47;;;;;;;16.19;72.12;99187.66;5013849;28;20050;-59
2022/12/31 06:02:50;;;;;;;1.35;0.40;;;;;;;16.24;71.53;99224.66;5016995;28;20052;-59
2022/12/31 06:05:18;;;;;;;0.52;0.30;;;;;;;16.23;71.62;99248.34;5030862;28;20060;-58
2022/12/31 06:07:46;;;;;;;1.00;0.52;;;;;;;16.27;70.94;99211.03;4996265;28;20050;-58
2022/12/31 06:10:14;;;;;;;2.50;0.40;;;;;;;16.30;71.81;99208.28;4994192;28;20054;-58
2022/12/31 06:12:41;;;;;;;1.10;0.30;;;;;;;16.38;70.83;99243.69;4998280;28;20053;-58
2022/12/31 06:15:09;;;;;;;1.42;0.47;;;;;;;16.45;70.55;99220.47;5013792;28;20065;-59
2022/12/31 06:17:36;;;;;;;1.13;0.40;;;;;;;16.49;69.85;99243.00;5023246;28;20053;-59
2022/12/31 06:20:04;;;;;;;1.55;0.47;;;;;;;16.53;69.81;99269.97;5033361;28;20049;-58
2022/12/31 06:22:32;;;;;;;1.23;0.50;;;;;;;16.58;69.68;99252.75;5033298;28;20056;-59
2022/12/31 06:25:00;;;;;;;2.28;0.50;;;;;;;16.65;70.26;99237.94;5033326;28;20056;-59
2022/12/31 06:27:28;;;;;;;0.93;0.40;;;;;;;16.66;69.14;99273.31;5033593;28;20057;-59
2022/12/31 06:29:55;;;;;;;2.97;0.63;;;;;;;16.72;69.18;99254.91;5033230;28;20057;-59
2022/12/31 06:32:22;;;;;;;1.50;0.60;;;;;;;16.69;68.95;99232.38;5029230;28;20065;-59
2022/12/31 06:34:49;;;;;;;1.20;0.70;;;;;;;16.69;68.24;99274.53;4913973;28;3423732;-59
2022/12/31 06:37:16;;;;;;;1.67;0.60;;;;;;;16.81;68.84;99254.63;5033852;28;20061;-59
2022/12/31 06:39:44;;;;;;;3.38;0.60;;;;;;;16.73;68.77;99276.19;5029823;28;20049;-58
2022/12/31 06:42:13;;;;;;;2.50;0.57;;;;;;;16.87;67.73;99250.25;5025397;28;20060;-59
2022/12/31 06:44:40;;;;;;;0.80;0.35;;;;;;;16.92;68.52;99249.91;5020645;28;20054;-58
2022/12/31 06:47:07;;;;;;;1.25;0.47;;;;;;;16.93;67.96;99276.84;5019869;28;20053;-59
2022/12/31 06:49:34;;;;;;;1.40;0.50;;;;;;;17.01;68.02;99278.53;5033738;28;20053;-59
2022/12/31 06:52:02;;;;;;;1.17;0.52;;;;;;;17.02;68.55;99284.97;5033796;28;20096;-58
2022/12/31 06:54:29;;;;;;;1.17;0.50;;;;;;;16.99;67.34;99291.38;5017060;28;20050;-59
2022/12/31 06:56:56;;;;;;;2.45;0.60;;;;;;;17.01;66.87;99264.47;5013740;28;20060;-59
2022/12/31 06:59:28;;;;;;;1.48;0.57;;;;;;;17.13;67.31;99273.81;5024058;28;20049;-59
2022/12/31 07:02:11;;;;;;;1.30;0.55;;;;;;;17.08;66.36;99279.81;5027593;28;20060;-58
2022/12/31 07:05:15;;;;;;;2.97;1.63;;;;;;;17.14;66.49;99278.25;5033835;28;20106;-58
2022/12/31 07:07:55;;;;;;;1.77;0.85;;;;;;;17.23;66.67;99282.34;5016107;28;20053;-59
2022/12/31 07:10:27;;;;;;;;;;;;;;;17.17;66.80;99281.06;5013096;28;20061;-59
2022/12/31 07:13:14;;;;;;;1.80;0.50;;;;;;;17.11;65.93;99315.59;5013557;28;19921;-59
2022/12/31 07:15:55;;;;;;;3.17;0.80;;;;;;;17.18;65.19;99296.78;5014174;28;20065;-59
2022/12/31 07:18:33;;;;;;;2.50;0.90;;;;;;;17.17;66.15;99267.00;5025094;28;20057;-59
2022/12/31 07:21:01;;;;;;;1.98;0.57;;;;;;;17.26;65.81;99294.84;5033332;28;20056;-59
2022/12/31 07:23:29;;;;;;;1.65;0.50;;;;;;;17.25;65.41;99279.13;5033460;28;20060;-58
2022/12/31 07:26:06;;;;;;;1.67;0.52;;;;;;;17.21;65.67;99346.63;5033259;28;20053;-59
2022/12/31 07:28:48;;;;;;;1.70;0.60;;;;;;;17.26;65.12;99292.03;5033371;28;20481;-58
2022/12/31 07:31:27;;;;;;;2.95;0.60;;;;;;;17.15;65.25;99314.41;5028677;28;20049;-59
2022/12/31 07:33:59;;;;;;;3.28;0.82;;;;;;;17.21;64.27;99326.13;5032679;28;20057;-59
2022/12/31 07:36:50;;;;;;;1.90;0.70;;;;;;;17.28;65.22;99300.88;5032857;28;20540;-59
2022/12/31 07:39:25;;;;;;;1.20;0.50;;;;;;;17.34;66.68;99312.59;5033026;28;20125;-59
2022/12/31 07:41:58;;;;;;;1.80;0.60;;;;;;;17.29;64.93;99315.75;5032904;28;20056;-59
2022/12/31 07:44:37;;;;;;;1.35;0.63;;;;;;;17.18;64.94;99284.72;5024053;28;20053;-59
2022/12/31 07:47:21;;;;;;;1.10;0.50;;;;;;;17.30;65.01;99300.47;5019620;28;20054;-59
2022/12/31 07:49:52;;;;;;;1.13;0.40;;;;;;;17.30;65.28;99309.72;5015456;28;20060;-58
2022/12/31 07:52:21;;;;;;;1.80;0.60;;;;;;;17.29;65.24;99316.56;5006878;28;20057;-58
2022/12/31 07:54:48;;;;;;;1.02;0.40;;;;;;;17.27;65.13;99304.09;5005910;28;20050;-57
2022/12/31 07:57:17;;;;;;;1.45;0.50;;;;;;;17.31;64.89;99319.00;5006865;28;20060;-59
2022/12/31 07:59:57;;;;;;;2.65;0.90;;;;;;;17.33;65.81;99322.25;5012711;28;20057;-59
2022/12/31 08:02:46;;;;;;;1.92;0.60;;;;;;;17.32;65.68;99326.25;5020830;28;20056;-58
2022/12/31 08:05:23;;;;;;;1.50;0.70;;;;;;;17.18;65.72;99333.34;5032877;28;20053;-59
2022/12/31 08:07:59;;;;;;;4.18;0.80;;;;;;;17.25;65.04;99326.97;5031269;28;20049;-58
2022/12/31 08:10:33;;;;;;;1.63;0.50;;;;;;;17.31;66.34;99342.31;5026710;28;20487;-59
2022/12/31 08:13:02;;;;;;;1.20;0.60;;;;;;;17.34;66.19;99337.91;5012360;28;20406;-59
2022/12/31 08:15:30;;;;;;;4.07;0.82;;;;;;;17.30;65.03;99354.75;5027321;28;20061;-59
2022/12/31 08:17:59;;;;;;;1.98;0.60;;;;;;;17.42;65.05;99320.69;5032348;28;20495;-58
2022/12/31 08:20:27;;;;;;;3.10;0.73;;;;;;;17.42;64.89;99340.41;5032374;28;20052;-59
2022/12/31 08:23:18;;;;;;;1.92;0.65;;;;;;;17.51;65.01;99316.75;5031319;28;20054;-59
2022/12/31 08:26:04;;;;;;;3.47;1.10;;;;;;;17.42;63.63;99348.84;5011458;28;20058;-58
2022/12/31 08:28:49;;;;;;;1.83;0.70;;;;;;;17.49;64.02;99348.13;5004605;28;20050;-59
2022/12/31 08:31:19;;;;;;;2.45;0.90;;;;;;;17.54;62.95;99339.31;4996943;28;20066;-59
2022/12/31 08:33:55;;;;;;;2.38;0.70;;;;;;;17.53;63.83;99336.88;4993664;28;20069;-58
2022/12/31 08:36:32;;;;;;;1.70;0.68;;;;;;;17.61;62.94;99349.81;4999110;28;20058;-58
2022/12/31 08:39:07;;;;;;;1.33;0.77;;;;;;;17.59;62.40;99346.56;5006001;28;20057;-58
2022/12/31 08:41:41;;;;;;;2.17;0.70;;;;;;;17.64;63.46;99352.66;5011549;28;20493;-58
2022/12/31 08:44:15;;;;;;;2.65;0.60;;;;;;;17.70;62.33;99353.13;5009331;28;20057;-59
2022/12/31 08:46:50;;;;;;;1.67;0.70;;;;;;;17.68;62.21;99361.16;5000971;28;20054;-58
2022/12/31 08:49:19;;;;;;;2.65;0.73;;;;;;;17.74;61.56;99375.66;5007038;28;20057;-59
2022/12/31 08:51:48;;;;;;;1.60;0.80;;;;;;;17.71;62.31;99384.91;4998065;28;20053;-59
2022/12/31 08:54:16;;;;;;;1.40;0.60;;;;;;;17.73;62.25;99386.13;5014614;28;20054;-58
2022/12/31 08:56:51;;;;;;;1.65;0.70;;;;;;;17.74;61.92;99393.38;5002062;28;20521;-59
2022/12/31 08:59:37;;;;;;;1.77;0.85;;;;;;;17.75;62.04;99399.84;5017833;28;20381;-57
2022/12/31 09:02:30;;;;;;;2.58;1.02;;;;;;;17.84;61.27;99384.22;5009358;28;20054;-59
2022/12/31 09:05:09;;;;;;;2.20;0.60;;;;;;;17.89;60.97;99401.97;5009315;28;20050;-59
2022/12/31 09:07:39;;;;;;;1.25;0.68;;;;;;;18.04;61.42;99378.34;5003896;28;20060;-59
2022/12/31 09:10:17;;;;;;;2.42;0.75;;;;;;;18.02;60.42;99386.38;5023836;28;20079;-59
2022/12/31 09:12:55;;;;;;;2.58;0.70;;;;;;;18.01;60.61;99385.56;5010388;28;20687;-59
2022/12/31 09:15:29;;;;;;;3.05;0.90;;;;;;;17.98;60.50;99402.47;5014535;28;20060;-59
2022/12/31 09:17:57;;;;;;;1.95;0.80;;;;;;;17.90;60.84;99403.59;4996889;28;20054;-59
2022/12/31 09:20:29;;;;;;;1.85;0.63;;;;;;;17.95;60.71;99397.59;5011471;28;20054;-59
2022/12/31 09:23:01;;;;;;;1.88;0.60;;;;;;;17.98;61.30;99416.53;5010769;28;20050;-59
2022/12/31 09:25:29;;;;;;;1.30;0.60;;;;;;;18.01;61.12;99405.28;4999294;28;20065;-59
2022/12/31 09:28:15;;;;;;;1.67;0.70;;;;;;;18.02;60.41;99434.28;5004689;28;20430;-59
2022/12/31 09:30:50;;;;;;;1.60;0.60;;;;;;;18.00;61.18;99409.31;5009613;28;20053;-59
2022/12/31 09:33:32;;;;;;;3.92;0.95;;;;;;;17.96;60.74;99419.75;5006280;28;20065;-59
2022/12/31 09:36:07;;;;;;;1.35;0.50;;;;;;;17.95;60.52;99403.22;5009690;28;20160;-60
2022/12/31 09:38:44;;;;;;;2.05;0.90;;;;;;;17.96;60.64;99431.03;5009734;28;20061;-59
2022/12/31 09:41:16;;;;;;;2.97;0.80;;;;;;;17.98;60.22;99417.34;5006076;28;20400;-59
2022/12/31 09:44:19;;;;;;;2.53;1.15;;;;;;;18.03;60.63;99436.69;5008090;28;20422;-58
2022/12/31 09:47:22;;;;;;;1.10;0.57;;;;;;;18.01;59.80;99466.47;4995552;28;20054;-60
2022/12/31 09:50:16;;;;;;;1.77;0.80;;;;;;;18.04;61.03;99460.88;5003435;28;20045;-58
2022/12/31 09:53:02;;;;;;;2.40;1.00;;;;;;;17.94;61.89;99463.59;5010988;28;20069;-60
2022/12/31 09:55:37;;;;;;;4.32;1.00;;;;;;;17.90;61.33;99474.03;5013613;28;20130;-60
2022/12/31 09:58:23;;;;;;;2.35;1.02;;;;;;;17.82;62.52;99471.13;5022230;28;20045;-60
2022/12/31 10:00:57;;;;;;;1.40;0.70;;;;;;;17.88;61.65;99470.78;5011003;28;20407;-60
2022/12/31 10:04:02;;;;;;;2.08;0.80;;;;;;;17.88;60.54;99504.59;5014083;28;20042;-60
2022/12/31 10:06:40;;;;;;;2.17;0.70;;;;;;;17.94;61.24;99503.84;5006340;28;20054;-59
2022/12/31 10:09:30;;;;;;;2.28;0.90;;;;;;;17.95;60.65;99521.56;5013319;28;20050;-60
2022/12/31 10:12:16;;;;;;;1.77;0.80;;;;;;;18.01;59.91;99484.19;5014349;28;20078;-58
2022/12/31 10:14:59;;;;;;;2.28;1.05;;;;;;;18.16;59.37;99471.03;5014357;28;20391;-59
2022/12/31 10:17:42;;;;;;;3.00;0.80;;;;;;;18.28;59.27;99508.56;5013601;28;20050;-59
2022/12/31 10:20:37;;;;;;;2.22;0.82;;;;;;;18.36;58.24;99496.97;5013510;28;20072;-56
2022/12/31 10:23:20;;;;;;;2.97;1.00;;;;;;;18.42;58.55;99491.78;5010780;28;20049;-59
2022/12/31 10:26:20;;;;;;;2.25;1.02;;;;;;;18.48;58.43;99512.78;5004068;28;20387;-59
2022/12/31 10:28:54;;;;;;;3.63;1.10;;;;;;;18.47;57.73;99505.50;5005472;28;20061;-58
2022/12/31 10:31:38;;;;;;;3.33;0.90;;;;;;;18.43;57.90;99502.63;5009586;28;20053;-58
2022/12/31 10:34:14;;;;;;;2.92;1.00;;;;;;;18.47;57.89;99502.69;5014531;28;20398;-58
2022/12/31 10:36:57;;;;;;;1.60;0.70;;;;;;;18.50;57.85;99495.44;5025011;28;20062;-57
2022/12/31 10:39:48;;;;;;;3.60;1.15;;;;;;;18.51;57.92;99480.94;5033702;28;20053;-58
2022/12/31 10:42:46;;;;;;;1.63;0.77;;;;;;;18.59;57.53;99488.25;5003340;28;20391;-59
2022/12/31 10:45:42;;;;;;;3.15;1.23;;;;;;;19.24;56.43;99499.91;5033992;28;20056;-58
2022/12/31 10:48:44;;;;;;;2.80;1.10;;;;;;;19.00;56.68;99530.47;5033515;28;20049;-59
2022/12/31 10:51:48;;;;;;;1.98;0.90;;;;;;;18.93;55.77;99504.22;5017423;28;20058;-58
2022/12/31 10:54:55;;;;;;;2.10;0.98;;;;;;;18.92;57.25;99499.75;5000967;28;20440;-58
2022/12/31 10:58:06;;;;;;;2.95;1.23;;;;;;;18.89;56.92;99507.00;5001996;28;20054;-60
2022/12/31 11:00:38;;;;;;;4.65;1.25;;;;;;;18.82;57.07;99512.63;5003008;28;20104;-59
2022/12/31 11:03:51;;;;;;;2.33;0.70;;;;;;;18.83;56.86;99508.56;5008513;28;20486;-59
2022/12/31 11:06:58;;;;;;;2.60;1.05;;;;;;;18.95;57.04;99510.25;5008985;28;20049;-60
2022/12/31 11:09:58;;;;;;;1.83;0.85;;;;;;;18.87;56.51;99495.28;5005341;28;20053;-60
2022/12/31 11:13:05;;;;;;;1.95;0.70;;;;;;;18.97;57.34;99500.19;5025506;28;20056;-60
2022/12/31 11:16:02;;;;;;;3.00;0.80;;;;;;;18.78;57.20;99500.47;4989199;28;20058;-59
2022/12/31 11:18:37;;;;;;;3.03;1.08;;;;;;;18.84;57.59;99490.47;5015483;28;20049;-66
2022/12/31 11:21:25;;;;;;;3.13;1.10;;;;;;;19.01;57.35;99498.19;5019530;28;20049;-65
2022/12/31 11:24:03;;;;;;;2.47;1.55;;;;;;;19.11;56.12;99484.53;5005892;28;20120;-62
2022/12/31 11:26:42;;;;;;;2.78;0.80;;;;;;;20.15;54.79;99488.41;5008883;28;20055;-60
2022/12/31 11:29:22;;;;;;;5.25;1.25;;;;;;;19.98;53.20;99477.91;5008279;28;20050;-60
2022/12/31 11:32:12;;;;;;;2.75;1.50;;;;;;;21.65;50.24;99500.59;5012957;28;20050;-60
2022/12/31 11:35:10;;;;;;;3.05;1.38;;;;;;;21.58;49.66;99506.31;5012557;28;20065;-59
2022/12/31 11:37:45;;;;;;;2.67;0.90;;;;;;;20.32;53.74;99494.47;5012458;28;20049;-59
2022/12/31 11:40:31;;;;;;;3.65;1.10;;;;;;;20.08;53.73;99502.56;5015778;28;20380;-59
2022/12/31 11:43:00;;;;;;;5.40;1.30;;;;;;;19.70;54.53;99502.09;5012510;28;20046;-59
2022/12/31 11:45:59;;;;;;;3.08;1.00;;;;;;;19.71;54.25;99500.88;5012804;28;20058;-60
2022/12/31 11:48:35;;;;;;;4.25;1.00;;;;;;;19.48;55.28;99502.00;5012429;28;20057;-60
2022/12/31 11:51:20;;;;;;;2.05;0.85;;;;;;;19.55;54.36;99497.59;5012999;28;20062;-59
2022/12/31 11:54:18;;;;;;;1.67;0.80;;;;;;;19.41;54.26;99527.41;5015419;28;20505;-60
2022/12/31 11:56:51;;;;;;;1.67;0.80;;;;;;;19.16;55.53;99492.63;5028815;28;20053;-60
2022/12/31 11:59:18;;;;;;;2.17;0.95;;;;;;;19.16;55.63;99510.38;4992974;28;20065;-60
2022/12/31 12:01:54;;;;;;;2.42;0.80;;;;;;;19.17;55.43;99495.06;4993946;28;20051;-60
2022/12/31 12:04:23;;;;;;;2.88;0.85;;;;;;;19.07;55.16;99478.88;5012222;28;20057;-60
2022/12/31 12:06:52;;;;;;;1.98;1.00;;;;;;;19.08;55.53;99485.31;5023369;28;20050;-60
2022/12/31 12:09:26;;;;;;;2.47;0.90;;;;;;;19.03;55.63;99490.16;5028719;28;20470;-60
2022/12/31 12:11:59;;;;;;;3.42;1.20;;;;;;;18.91;55.74;99509.44;5031749;28;20414;-59
2022/12/31 12:14:32;;;;;;;2.70;0.73;;;;;;;18.93;56.36;99518.31;5031845;28;20148;-60
2022/12/31 12:17:00;;;;;;;3.33;1.13;;;;;;;18.94;55.95;99501.00;5031957;28;20058;-60
2022/12/31 12:19:31;;;;;;;2.97;1.20;;;;;;;18.83;55.39;99508.56;5032203;28;20053;-60
2022/12/31 12:22:08;;;;;;;3.58;0.80;;;;;;;18.97;55.85;99491.72;5024690;28;20050;-60
2022/12/31 12:24:36;;;;;;;3.10;1.38;;;;;;;18.77;55.33;99505.31;5031973;28;20053;-60